Date,TemperatureHighF,TemperatureAvgF,TemperatureLowF,DewpointHighF,DewpointAvgF,DewpointLowF,HumidityHigh,HumidityAvg,HumidityLow,PressureMaxIn,PressureMinIn,WindSpeedMaxMPH,WindSpeedAvgMPH,GustSpeedMaxMPH,PrecipitationSumIn
2013-1-1,25.0,24.3,24.0,20.0,19.7,19.0,86,82,78,30.22,30.19,4,3,0,0.00
2013-1-2,24.0,19.8,14.0,18.0,15.4,11.0,86,82,78,30.24,30.22,1,0,0,0.00
2013-1-3,40.0,34.2,24.0,27.0,24.5,22.0,92,69,53,30.39,30.34,4,2,0,0.00
2013-1-4,29.0,25.6,21.0,24.0,22.3,19.0,91,87,82,30.44,30.42,1,0,0,0.00
2013-1-5,39.0,37.9,36.0,29.0,27.4,26.0,67,66,64,30.29,30.27,4,2,0,0.00
2013-1-6,39.0,34.2,28.0,24.0,20.6,17.0,70,58,45,30.36,30.32,6,3,0,0.00
2013-1-7,50.0,41.5,20.0,25.0,23.6,17.0,87,50,36,30.33,30.13,9,3,0,0.00
2013-1-8,50.0,41.3,31.0,27.0,26.1,24.0,74,56,41,30.14,30.12,6,3,0,0.00
2013-1-9,57.0,48.3,40.0,44.0,38.0,33.0,98,70,46,30.42,30.35,2,1,0,0.00
2013-1-10,49.0,45.2,42.0,48.0,44.2,41.0,97,96,96,30.15,29.98,4,3,0,0.00
2013-1-11,64.0,58.1,47.0,48.0,46.0,44.0,91,65,53,29.84,29.73,11,8,0,0.00
2013-1-12,59.0,42.4,27.0,48.0,33.7,24.0,93,73,45,30.01,29.80,9,3,0,0.00
2013-1-13,27.0,19.2,12.0,25.0,15.3,9.0,91,84,78,30.35,29.96,0,0,0,0.00
2013-1-14,19.0,15.8,11.0,14.0,11.7,8.0,87,83,79,30.47,30.42,0,0,0,0.00
2013-1-18,40.0,38.1,35.0,28.0,27.5,26.0,69,65,63,30.42,30.40,5,4,0,0.00
2013-1-20,37.0,37.0,37.0,19.0,19.0,19.0,47,47,47,30.30,30.30,1,1,0,0.00
2013-1-21,28.0,25.5,20.0,12.0,10.7,9.0,66,53,47,30.40,30.35,8,5,0,0.00
2013-1-22,33.0,26.9,18.0,14.0,10.3,5.0,61,49,39,30.41,30.24,5,2,0,0.00
2013-1-23,53.0,42.4,16.0,35.0,29.5,13.0,87,62,49,30.25,30.15,5,2,0,0.00
2013-1-24,22.0,20.2,18.0,9.0,8.3,7.0,62,60,56,30.46,30.44,3,2,0,0.00
2013-1-25,35.0,32.6,30.0,23.0,23.0,23.0,76,68,60,30.21,30.16,4,3,0,0.00
2013-1-28,74.0,69.7,65.0,60.0,58.3,56.0,81,68,56,29.94,29.85,11,8,0,0.00
2013-1-29,68.0,58.0,51.0,60.0,54.6,50.0,98,90,74,29.71,29.48,15,5,0,0.00
2013-1-30,35.0,31.6,30.0,32.0,28.2,26.0,91,88,83,29.68,29.57,12,9,0,0.00
2013-2-3,43.0,41.9,41.0,23.0,22.4,22.0,48,45,44,30.07,30.03,2,1,0,0.00
2013-2-4,60.0,51.0,34.0,39.0,33.3,28.0,80,52,38,29.96,29.81,7,4,0,0.00
2013-2-6,45.0,45.0,45.0,33.0,33.0,33.0,62,62,62,30.16,30.16,7,7,0,0.00
2013-2-7,52.0,49.6,48.0,49.0,45.1,40.0,96,85,70,29.94,29.89,4,1,0,0.00
2013-2-8,37.0,34.5,33.0,30.0,28.8,28.0,84,80,76,30.34,30.28,3,2,0,0.00
2013-2-9,45.0,41.0,37.0,34.0,30.4,28.0,90,68,53,30.12,29.96,9,6,0,0.00
2013-2-10,60.0,55.2,46.0,37.0,29.6,26.0,53,38,28,29.84,29.59,8,6,0,0.00
2013-2-11,38.0,36.5,35.0,27.0,27.0,27.0,71,68,65,30.14,30.12,3,3,0,0.00
2013-2-12,30.0,28.8,25.0,27.0,26.0,23.0,91,90,89,30.14,30.10,0,0,0,0.00
2013-2-13,35.0,33.1,31.0,34.0,31.7,30.0,97,95,93,29.96,29.94,3,1,0,0.00
2013-2-14,54.0,46.9,34.0,34.0,31.2,28.0,77,55,38,30.01,29.97,7,4,0,0.00
2013-2-15,37.0,33.2,31.0,25.0,16.6,9.0,74,52,31,30.32,30.24,9,7,0,0.00
2013-2-16,36.0,32.1,28.0,23.0,19.2,17.0,72,59,48,30.31,30.13,4,2,0,0.00
2013-2-17,52.0,39.8,31.0,31.0,24.8,20.0,66,56,45,30.13,29.84,9,4,0,0.00
2013-2-18,53.0,42.1,35.0,50.0,36.5,26.0,89,80,70,29.99,29.54,13,8,0,0.00
2013-2-19,32.0,30.6,29.0,16.0,15.2,15.0,56,52,48,30.22,30.19,9,9,0,0.00
2013-2-20,31.0,26.0,22.0,11.0,9.0,7.0,53,48,41,30.35,30.23,2,1,0,0.00
2013-2-21,32.0,29.0,26.0,31.0,26.9,23.0,96,92,87,29.99,29.73,5,3,0,0.00
2013-2-24,52.0,47.2,40.0,33.0,31.7,30.0,66,55,49,30.04,29.91,7,3,0,0.00
2013-2-25,45.0,37.0,33.0,33.0,30.3,26.0,96,79,53,29.88,29.50,7,4,0,0.00
2013-2-26,33.0,32.5,32.0,31.0,30.6,29.0,95,92,90,29.75,29.42,8,5,0,0.00
2013-2-28,30.0,30.0,30.0,25.0,25.0,25.0,82,81,80,30.08,30.07,6,6,0,0.00
2013-3-1,30.0,28.9,28.0,24.0,22.6,21.0,82,77,73,30.18,30.15,6,4,0,0.00
2013-3-2,27.0,25.6,25.0,16.0,15.2,14.0,69,64,63,30.32,30.31,7,6,0,0.00
2013-3-4,60.0,51.3,39.0,43.0,38.8,30.0,84,63,49,29.82,29.65,8,3,0,0.00
2013-3-5,43.0,36.0,33.0,34.0,27.2,20.0,91,71,50,30.13,29.82,11,7,0,0.00
2013-3-6,37.0,31.7,27.0,24.0,20.2,18.0,68,62,57,30.40,30.37,6,4,0,0.00
2013-3-7,35.0,33.9,32.0,27.0,25.9,24.0,72,71,71,30.29,30.29,3,3,0,0.00
2013-3-8,55.0,48.7,40.0,35.0,33.5,31.0,72,56,46,30.30,30.23,9,7,0,0.00
2013-3-9,69.0,62.3,54.0,54.0,49.6,40.0,93,66,39,29.80,29.73,16,9,0,0.00
2013-3-10,57.0,49.4,35.0,55.0,46.8,33.0,97,91,69,29.83,29.63,10,4,0,0.00
2013-3-11,27.0,27.0,27.0,24.0,24.0,24.0,88,87,87,29.86,29.85,6,5,0,0.00
2013-3-13,28.0,26.1,23.0,19.0,18.7,18.0,81,74,69,30.40,30.38,5,2,0,0.00
2013-3-14,71.0,59.8,40.0,41.0,35.4,24.0,69,41,30,30.27,30.09,7,4,0,0.00
2013-3-15,71.0,61.7,50.0,48.0,46.2,43.0,76,58,44,29.99,29.93,4,2,0,0.00
2013-3-16,52.0,46.6,39.0,43.0,38.5,35.0,90,74,67,29.99,29.91,6,3,0,0.00
2013-3-17,39.0,36.1,35.0,37.0,34.8,34.0,96,95,90,30.00,29.74,3,2,0,0.00
2013-3-18,53.0,40.8,36.0,38.0,33.4,25.0,99,79,36,30.04,29.70,8,3,0,0.00
2013-3-19,40.0,32.1,24.0,25.0,22.0,16.0,90,70,38,30.22,30.17,3,1,0,0.00
2013-3-20,36.0,33.8,32.0,24.0,17.6,10.0,73,53,34,30.34,30.31,8,6,0,0.00
2013-3-27,45.0,41.2,34.0,29.0,27.4,25.0,80,59,46,30.35,30.33,4,2,0,0.00
2013-3-28,64.0,62.9,61.0,40.0,39.2,38.0,42,42,41,30.20,30.18,5,4,0,0.00
2013-3-29,49.0,48.4,48.0,49.0,47.7,47.0,99,98,98,30.19,30.18,0,0,0,0.00
2013-3-30,59.0,54.9,49.0,52.0,47.9,-99.9,96,85,77,30.03,29.88,9,2,0,0.00
2013-3-31,66.0,60.3,47.0,47.0,41.2,37.0,73,50,36,29.99,29.92,5,3,0,0.00
2013-4-1,49.0,44.8,40.0,38.0,34.1,31.0,75,67,49,30.22,29.96,6,4,0,0.00
2013-4-2,35.0,34.5,34.0,22.0,21.5,21.0,62,59,56,30.31,30.30,1,1,0,0.00
2013-4-3,44.0,39.2,33.0,24.0,22.8,21.0,62,52,44,30.34,30.33,3,2,0,0.00
2013-4-4,57.0,56.1,55.0,27.0,25.8,25.0,31,31,30,30.08,30.07,5,4,0,0.00
2013-4-5,69.0,63.1,48.0,39.0,36.6,34.0,61,38,29,30.19,30.00,7,2,0,0.00
2013-4-6,74.0,67.0,58.0,49.0,44.7,38.0,59,45,34,29.92,29.75,16,7,0,0.00
2013-4-7,74.0,67.1,56.0,55.0,52.1,49.0,92,62,43,29.83,29.73,16,3,0,0.00
2013-4-8,75.0,70.8,65.0,59.0,57.6,55.0,76,64,52,29.83,29.75,12,6,0,0.00
2013-4-10,58.0,48.8,41.0,56.0,47.7,40.0,97,96,92,29.86,29.69,5,3,0,0.00
2013-4-11,45.0,40.1,35.0,33.0,31.4,30.0,91,72,57,29.80,29.73,8,4,0,0.00
2013-4-12,52.0,47.2,40.0,34.0,32.1,27.0,79,56,48,29.99,29.91,8,5,0,0.00
2013-4-14,79.0,75.0,68.0,55.0,45.6,41.0,63,37,27,29.66,29.52,16,11,0,0.00
2013-4-15,73.0,59.2,51.0,63.0,53.3,45.0,94,81,70,29.88,29.74,9,4,0,0.00
2013-4-16,47.0,45.1,43.0,45.0,43.6,42.0,97,94,91,30.10,30.05,3,2,0,0.00
2013-4-17,83.0,76.7,57.0,67.0,63.8,57.0,100,66,54,29.95,29.65,15,10,0,0.00
2013-4-18,75.0,75.0,75.0,64.0,64.0,64.0,68,68,68,29.68,29.68,11,11,0,0.00
2013-4-19,52.0,45.6,35.0,30.0,25.9,22.0,71,47,32,30.08,29.98,9,6,0,0.00
2013-4-20,62.0,56.6,43.0,36.0,32.7,29.0,62,41,32,30.26,30.16,4,2,0,0.00
2013-4-21,67.0,63.8,58.0,39.0,36.2,32.0,48,36,28,30.29,30.17,11,7,0,0.00
2013-4-24,53.0,45.4,36.0,33.0,31.0,27.0,89,59,38,30.25,30.22,6,5,0,0.00
2013-4-25,58.0,51.7,40.0,36.0,33.2,31.0,69,50,41,30.37,30.33,5,4,0,0.00
2013-4-26,49.0,47.3,47.0,47.0,45.9,45.0,96,94,88,30.35,30.19,6,3,0,0.00
2013-4-29,85.0,78.7,72.0,62.0,57.5,52.0,65,49,35,29.90,29.77,7,3,0,0.00
2013-4-30,82.0,77.9,69.0,56.0,49.2,46.0,56,37,29,29.90,29.84,13,7,0,0.00
2013-5-1,81.0,76.6,66.0,62.0,59.6,56.0,71,56,45,30.09,30.01,7,4,0,0.00
2013-5-2,48.0,43.1,37.0,45.0,40.8,35.0,94,91,87,30.28,30.22,6,5,0,0.00
2013-5-3,36.0,34.5,33.0,34.0,33.1,32.0,95,94,91,30.07,29.97,9,5,0,0.00
2013-5-4,38.0,37.5,37.0,35.0,34.3,34.0,92,88,85,29.88,29.88,2,1,0,0.00
2013-5-6,68.0,61.7,52.0,54.0,53.0,51.0,98,74,58,30.09,30.00,6,4,0,0.00
2013-5-7,78.0,70.2,52.0,56.0,51.4,48.0,98,54,37,30.08,29.99,4,2,0,0.00
2013-5-8,72.0,67.6,59.0,59.0,57.0,54.0,89,70,54,30.09,29.95,5,1,0,0.00
2013-5-9,75.0,69.9,60.0,62.0,59.6,57.0,94,71,57,29.96,29.91,5,2,0,0.00
2013-5-10,63.0,58.5,52.0,58.0,50.7,-99.9,93,82,71,30.05,29.94,6,4,0,0.00
2013-5-11,70.0,62.4,46.0,53.0,38.5,-99.9,87,46,27,30.21,30.09,10,5,0,0.00
2013-5-13,78.0,69.5,51.0,54.0,47.4,40.0,76,47,35,30.22,30.04,7,3,0,0.00
2013-5-14,90.0,81.9,68.0,53.0,51.1,49.0,56,35,27,30.02,29.93,5,3,0,0.00
2013-5-15,84.0,75.1,64.0,68.0,62.6,55.0,87,66,52,29.99,29.90,6,2,0,0.00
2013-5-16,70.0,56.9,63.0,63.0,23.3,-99.9,98,82,74,29.96,29.88,8,4,0,0.00
2013-5-17,78.0,71.5,66.0,64.0,53.9,-99.9,87,68,57,29.98,29.91,3,1,0,0.00
2013-5-19,79.0,79.0,79.0,67.0,66.2,65.0,66,65,63,29.77,29.69,10,8,0,0.00
2013-5-20,76.0,70.4,62.0,70.0,66.6,62.0,99,88,76,29.88,29.75,9,4,0,0.00
2013-5-21,73.0,67.1,59.0,64.0,61.1,58.0,96,81,65,29.87,29.68,6,2,0,0.00
2013-5-22,61.0,58.5,56.0,59.0,57.3,55.0,97,95,89,29.82,29.76,2,0,0,0.00
2013-5-23,70.0,64.8,56.0,56.0,53.9,50.0,87,68,60,30.19,30.06,6,3,0,0.00
2013-5-24,66.0,61.8,57.0,52.0,47.3,45.0,84,60,47,30.37,30.36,6,4,0,0.00
2013-5-25,81.0,72.8,59.0,65.0,60.1,49.0,85,65,55,30.25,30.10,6,4,0,0.00
2013-5-26,84.0,73.4,62.0,68.0,63.3,59.0,91,72,50,30.16,29.99,10,4,0,0.00
2013-5-27,80.0,77.1,75.0,70.0,65.7,63.0,74,68,66,29.87,29.77,14,10,0,0.00
2013-5-28,81.0,76.3,70.0,69.0,66.2,63.0,83,71,62,29.88,29.81,11,7,0,0.00
2013-5-29,80.0,76.1,71.0,67.0,65.5,62.0,82,70,61,29.93,29.83,11,8,0,0.00
2013-5-30,83.0,76.0,65.0,67.0,64.2,61.0,90,68,58,29.86,29.75,16,11,0,0.00
2013-5-31,82.0,78.3,70.0,72.0,70.4,66.0,88,77,67,29.84,29.70,10,6,0,0.00
2013-6-1,75.0,68.6,61.0,67.0,61.3,58.0,99,79,59,30.00,29.76,5,2,0,0.00
2013-6-2,62.0,59.7,56.0,58.0,55.3,53.0,97,86,75,30.09,30.00,4,1,0,0.00
2013-6-3,74.0,66.9,53.0,60.0,55.6,53.0,99,69,52,30.10,29.95,5,2,0,0.00
2013-6-4,74.0,68.9,61.0,63.0,60.6,56.0,84,75,66,30.05,29.95,6,3,0,0.00
2013-6-5,69.0,64.8,58.0,66.0,62.2,57.0,96,91,84,30.02,29.88,4,1,0,0.00
2013-6-6,72.0,67.0,61.0,63.0,60.6,58.0,100,81,63,29.95,29.91,4,1,0,0.00
2013-6-7,73.0,67.0,53.0,58.0,54.5,49.0,99,66,43,29.99,29.92,5,2,0,0.00
2013-6-8,53.0,51.3,50.0,52.0,50.3,49.0,97,96,95,29.98,29.96,0,0,0,0.00
2013-6-9,79.0,69.2,60.0,67.0,62.0,59.0,97,80,56,29.93,29.83,4,1,0,0.00
2013-6-10,86.0,79.3,65.0,70.0,62.3,59.0,92,57,46,29.93,29.90,4,2,0,0.00
2013-6-11,93.0,84.7,74.0,73.0,68.6,66.0,83,60,44,30.00,29.93,6,2,0,0.00
2013-6-12,90.0,86.4,80.0,73.0,70.4,68.0,71,60,49,29.98,29.87,11,5,0,0.00
2013-6-13,84.0,77.0,67.0,68.0,64.5,58.0,87,66,52,30.08,30.00,4,2,0,0.00
2013-6-14,78.0,75.0,69.0,66.0,65.7,65.0,89,73,65,30.09,30.07,6,4,0,0.00
2013-6-15,71.0,69.1,68.0,68.0,67.0,66.0,96,92,86,30.10,30.05,5,3,0,0.00
2013-6-17,74.0,71.7,67.0,71.0,69.1,64.0,98,91,86,30.01,29.94,5,1,0,0.00
2013-6-18,85.0,73.8,62.0,71.0,66.6,62.0,100,80,57,30.06,30.01,3,1,0,0.00
2013-6-19,85.0,80.5,68.0,70.0,67.3,65.0,99,65,53,30.09,30.01,3,1,0,0.00
2013-6-20,77.0,74.3,70.0,69.0,68.3,68.0,92,82,75,30.11,30.10,5,2,0,0.00
2013-6-22,88.0,85.7,81.0,76.0,72.7,72.0,73,66,59,30.10,29.98,7,4,0,0.00
2013-6-23,88.0,84.6,77.0,75.0,72.8,70.0,80,68,60,30.05,29.95,6,3,0,0.00
2013-6-24,89.0,83.0,75.0,74.0,71.3,69.0,84,69,54,30.09,29.96,7,4,0,0.00
2013-6-25,87.0,85.1,78.0,74.0,71.6,70.0,77,65,59,29.99,29.88,8,5,0,0.00
2013-6-26,93.0,88.3,78.0,77.0,74.0,71.0,80,64,53,29.89,29.85,4,2,0,0.00
2013-6-27,93.0,84.9,75.0,81.0,76.2,72.0,97,76,65,29.99,29.87,3,1,0,0.00
2013-6-28,86.0,81.1,71.0,74.0,69.0,64.0,98,68,52,29.96,29.85,6,3,0,0.00
2013-7-1,79.0,72.9,64.0,60.0,56.4,53.0,83,57,46,30.06,30.03,5,3,0,0.00
2013-7-2,79.0,71.9,59.0,63.0,56.0,52.0,92,60,41,30.12,30.07,4,2,0,0.00
2013-7-3,82.0,74.4,56.0,63.0,57.5,54.0,97,58,39,30.15,30.04,4,1,0,0.00
2013-7-4,84.0,83.2,82.0,61.0,58.5,56.0,50,43,38,30.08,30.04,4,2,0,0.00
2013-7-5,85.0,79.5,71.0,65.0,62.6,58.0,77,57,40,30.08,29.98,4,2,0,0.00
2013-7-6,88.0,85.6,79.0,70.0,63.3,59.0,69,48,38,30.06,29.96,5,3,0,0.00
2013-7-8,90.0,82.7,73.0,73.0,68.6,-99.9,88,66,52,30.14,30.06,6,2,0,0.00
2013-7-9,94.0,82.0,69.0,73.0,70.6,67.0,93,71,48,30.11,29.96,5,1,0,0.00
2013-7-10,92.0,85.4,76.0,77.0,74.2,70.0,92,71,50,30.03,29.96,3,1,0,0.00
2013-7-11,87.0,81.6,73.0,67.0,62.9,59.0,77,55,39,30.10,30.00,3,1,0,0.00
2013-7-12,75.0,72.2,67.0,61.0,60.5,60.0,80,67,60,30.12,30.12,6,4,0,0.00
2013-7-13,83.0,78.2,70.0,65.0,62.6,60.0,81,60,47,30.11,30.01,3,1,0,0.00
2013-7-14,88.0,83.6,78.0,66.0,61.2,58.0,66,48,38,30.12,30.05,5,2,0,0.00
2013-7-15,89.0,81.2,68.0,70.0,67.7,65.0,93,65,46,30.23,30.13,5,2,0,0.00
2013-7-16,91.0,80.8,73.0,75.0,71.2,67.0,97,76,45,30.32,30.25,4,1,0,0.00
2013-7-17,92.0,85.5,74.0,75.0,70.7,66.0,98,64,44,30.39,30.23,3,1,0,0.00
2013-7-18,95.0,81.5,68.0,75.0,69.2,64.0,97,71,38,30.27,30.06,3,1,0,0.00
2013-7-19,96.0,87.0,73.0,73.0,68.7,64.0,85,57,36,30.08,29.93,5,2,0,0.00
2013-7-20,92.0,77.7,70.0,72.0,67.7,-99.9,92,75,48,29.98,29.88,4,1,0,0.00
2013-7-21,84.0,76.8,71.0,70.0,69.4,69.0,92,79,60,29.91,29.86,5,2,0,0.00
2013-7-22,69.0,69.0,69.0,69.0,69.0,69.0,99,99,99,29.88,29.88,0,0,0,0.00
2013-7-29,79.0,72.9,64.0,71.0,67.7,63.0,96,84,71,30.15,30.05,7,2,0,0.00
2013-7-30,83.0,76.6,70.0,75.0,72.6,69.0,98,88,71,30.06,30.00,3,1,0,0.00
2013-7-31,84.0,75.6,70.0,73.0,70.3,67.0,99,85,59,30.11,30.03,5,1,0,0.00
2013-8-1,87.0,79.7,65.0,71.0,66.5,63.0,99,66,47,30.14,30.02,2,1,0,0.00
2013-8-2,79.0,74.5,70.0,76.0,71.0,65.0,97,89,74,30.02,29.91,5,1,0,0.00
2013-8-3,85.0,78.1,69.0,74.0,71.7,69.0,99,82,65,30.12,30.06,4,2,0,0.00
2013-8-4,73.0,71.3,69.0,72.0,70.2,68.0,98,97,90,30.20,30.07,3,1,0,0.00
2013-8-5,85.0,76.8,69.0,77.0,73.6,69.0,100,90,75,30.03,29.87,6,2,0,0.00
2013-8-6,82.0,76.8,70.0,75.0,72.5,69.0,98,87,77,29.96,29.84,7,2,0,0.00
2013-8-7,86.0,78.2,70.0,75.0,72.1,68.0,98,83,66,29.99,29.92,6,2,0,0.00
2013-8-8,83.0,75.4,70.0,74.0,71.9,70.0,99,89,69,30.02,29.92,3,1,0,0.00
2013-8-9,74.0,71.7,68.0,73.0,68.7,66.0,99,90,80,30.09,30.00,4,1,0,0.00
2013-8-10,82.0,74.3,67.0,71.0,67.9,66.0,99,82,60,30.19,30.09,4,1,0,0.00
2013-8-11,77.0,75.2,73.0,67.0,66.3,65.0,75,74,72,30.15,30.15,3,3,0,0.00
2013-8-12,76.0,74.9,73.0,75.0,72.9,71.0,99,93,87,30.06,30.01,4,1,0,0.00
2013-8-13,79.0,72.6,63.0,67.0,60.9,-99.9,94,70,53,30.12,30.06,3,1,0,0.00
2013-8-14,76.0,68.8,59.0,59.0,54.4,-99.9,96,67,48,30.23,30.11,3,1,0,0.00
2013-8-15,74.0,61.9,60.0,59.0,37.5,-99.9,91,60,50,30.17,30.07,3,1,0,0.00
2013-8-16,72.0,65.7,62.0,59.0,51.3,-99.9,84,69,57,30.15,30.14,2,1,0,0.00
2013-8-17,79.0,71.6,62.0,63.0,58.1,-99.9,91,66,54,30.20,30.11,3,1,0,0.00
2013-8-18,80.0,75.6,66.0,66.0,64.5,63.0,92,70,57,30.16,30.11,4,1,0,0.00
2013-8-19,81.0,69.2,61.0,68.0,46.3,-99.9,99,70,57,30.16,30.06,3,1,0,0.00
2013-8-20,80.0,69.9,62.0,68.0,57.8,-99.9,99,79,65,30.14,30.13,3,1,0,0.00
2013-8-21,88.0,81.1,64.0,73.0,68.8,64.0,99,68,52,30.15,30.06,4,1,0,0.00
2013-8-22,89.0,82.0,66.0,74.0,69.8,65.0,98,68,48,30.16,30.05,3,0,0,0.00
2013-8-23,89.0,82.1,67.0,74.0,70.2,66.0,98,69,52,30.15,30.05,3,1,0,0.00
2013-8-24,82.0,80.1,79.0,70.0,70.0,70.0,74,71,67,30.16,30.14,0,0,0,0.00
2013-8-25,86.0,85.5,85.0,72.0,71.0,70.0,66,62,59,30.27,30.25,3,2,0,0.00
2013-9-1,87.0,87.0,87.0,72.0,71.4,71.0,62,60,59,29.86,29.85,3,3,0,0.00
2013-9-2,84.0,76.9,67.0,65.0,62.1,59.0,86,62,43,30.06,29.97,4,-29,0,0.00
2013-9-3,86.0,78.1,57.0,63.0,59.2,54.0,98,55,36,30.13,30.03,3,1,0,0.00
2013-9-4,87.0,78.3,64.0,66.0,60.2,55.0,89,57,36,30.20,30.12,2,1,0,0.00
2013-9-5,76.0,67.6,55.0,64.0,61.1,54.0,97,81,66,30.24,30.18,0,0,0,0.00
2013-9-6,87.0,79.8,66.0,66.0,62.0,56.0,85,57,36,30.19,30.06,5,2,0,0.00
2013-9-7,93.0,87.5,76.0,72.0,66.1,61.0,78,51,35,30.08,29.96,4,2,0,0.00
2013-9-12,78.0,75.2,69.0,69.0,68.6,68.0,96,80,74,30.12,30.11,1,1,0,0.00
2013-9-13,58.0,58.0,58.0,50.0,50.0,50.0,74,74,74,30.15,30.15,0,0,0,0.00
2013-9-14,73.0,66.6,55.0,53.0,50.5,50.0,82,58,44,30.15,30.12,4,3,0,0.00
2013-9-16,68.0,66.9,66.0,67.0,65.8,64.0,96,95,94,30.24,30.20,1,0,0,0.00
2013-9-24,73.0,66.1,64.0,61.0,61.0,61.0,89,83,65,29.85,29.85,2,0,0,0.00
2013-9-25,77.0,67.9,53.0,65.0,61.3,52.0,99,80,63,29.92,29.85,3,1,0,0.00
2013-9-26,82.0,75.2,61.0,64.0,62.7,61.0,99,67,52,30.00,29.96,6,3,0,0.00
2013-9-27,83.0,78.8,66.0,67.0,63.9,61.0,92,62,47,30.07,29.96,8,6,0,0.00
2013-9-28,72.0,64.7,61.0,69.0,59.2,-99.9,97,90,77,30.07,29.97,8,2,0,0.00
2013-9-29,72.0,63.5,53.0,56.0,53.9,52.0,96,73,50,30.11,29.99,3,1,0,0.00
2013-9-30,77.0,69.3,57.0,65.0,62.5,57.0,100,80,60,29.97,29.88,7,2,0,0.00
2013-10-1,66.0,65.1,64.0,64.0,63.6,63.0,95,94,93,30.02,30.01,0,0,0,0.00
2013-10-2,79.0,75.0,65.0,72.0,69.1,65.0,99,83,73,30.07,29.96,4,1,0,0.00
2013-10-3,82.0,76.9,67.0,70.0,68.5,65.0,94,76,64,29.96,29.86,8,5,0,0.00
2013-10-4,84.0,77.6,69.0,69.0,68.4,67.0,92,74,60,29.95,29.88,8,6,0,0.00
2013-10-5,63.0,54.3,50.0,63.0,53.1,48.0,99,96,92,30.00,29.96,4,2,0,0.00
2013-10-6,56.0,54.6,54.0,43.0,42.1,41.0,65,62,61,29.95,29.93,5,3,0,0.00
2013-10-7,70.0,59.3,42.0,49.0,46.7,41.0,99,66,42,30.17,30.10,3,1,0,0.00
2013-10-8,72.0,61.4,40.0,54.0,49.9,39.0,99,70,47,30.20,30.09,8,3,0,0.00
2013-10-9,74.0,63.2,40.0,55.0,50.4,39.0,97,66,39,30.17,30.06,5,1,0,0.00
2013-10-10,76.0,66.5,46.0,58.0,54.3,45.0,99,68,48,30.14,29.98,5,2,0,0.00
2013-10-11,78.0,71.8,60.0,64.0,61.6,58.0,92,71,59,29.98,29.88,11,7,0,0.00
2013-10-12,59.0,58.5,58.0,58.0,57.5,57.0,97,97,97,30.05,30.03,1,0,0,0.00
2013-10-13,70.0,60.8,43.0,49.0,45.0,42.0,97,60,38,30.40,30.29,3,1,0,0.00
2013-10-14,66.0,60.4,51.0,60.0,52.7,44.0,93,76,61,30.24,30.03,4,2,0,0.00
2013-10-15,62.0,57.0,49.0,61.0,54.1,47.0,98,91,79,30.07,29.90,3,1,0,0.00
2013-10-16,57.0,50.5,41.0,46.0,42.7,40.0,98,75,60,30.12,30.01,4,2,0,0.00
2013-10-17,61.0,51.4,43.0,48.0,44.5,42.0,98,79,54,30.04,29.95,3,1,0,0.00
2013-10-18,55.0,46.9,37.0,43.0,40.9,36.0,99,81,59,30.11,30.02,3,2,0,0.00
2013-10-19,40.0,38.3,36.0,39.0,37.3,35.0,96,96,96,30.07,30.07,1,0,0,0.00
2013-10-22,62.0,60.4,60.0,42.0,42.0,42.0,52,50,47,29.93,29.91,6,5,0,0.00
2013-10-23,51.0,45.6,34.0,39.0,35.4,31.0,96,68,53,30.19,30.04,3,1,0,0.00
2013-10-24,51.0,42.3,33.0,36.0,28.6,24.0,84,61,36,30.42,30.27,6,2,0,0.00
2013-10-25,56.0,43.9,23.0,28.0,26.4,21.0,95,54,29,30.49,30.23,6,2,0,0.00
2013-10-26,64.0,58.8,50.0,48.0,45.8,42.0,73,63,53,30.15,30.07,4,2,0,0.00
2013-10-27,64.0,55.0,32.0,35.0,31.6,29.0,96,47,28,30.12,30.03,3,1,0,0.00
2013-10-28,70.0,54.7,40.0,56.0,44.1,-99.9,100,78,40,30.20,30.12,6,2,0,0.00
2013-10-29,64.0,59.3,56.0,63.0,58.6,55.0,99,98,95,30.17,30.01,4,3,0,0.00
2013-10-31,63.0,57.3,48.0,62.0,56.1,47.0,97,96,91,29.70,29.47,6,3,0,0.00
2013-11-1,61.0,52.1,42.0,43.0,42.1,41.0,98,72,47,29.91,29.77,5,1,0,0.00
2013-11-2,54.0,47.5,40.0,40.0,37.6,36.0,88,70,52,30.20,30.13,5,2,0,0.00
2013-11-3,53.0,45.8,28.0,42.0,36.9,27.0,98,73,58,30.25,30.05,10,5,0,0.00
2013-11-4,61.0,55.1,48.0,48.0,45.5,42.0,79,70,60,30.15,30.06,10,6,0,0.00
2013-11-5,59.0,57.3,53.0,57.0,55.5,52.0,98,94,90,30.19,29.98,9,6,0,0.00
2013-11-6,42.0,41.3,40.0,41.0,37.9,36.0,97,88,78,30.27,30.08,6,4,0,0.00
2013-11-7,58.0,48.2,33.0,40.0,35.4,32.0,98,64,38,30.42,30.31,6,2,0,0.00
2013-11-8,61.0,53.7,35.0,37.0,36.1,34.0,97,53,39,30.31,30.06,12,6,0,0.00
2013-11-11,62.0,52.7,38.0,50.0,44.8,36.0,93,75,64,30.43,30.16,8,2,0,0.00
2013-11-12,26.0,24.6,24.0,17.0,16.8,15.0,75,72,63,30.75,30.70,3,2,0,0.00
2013-11-13,48.0,38.7,21.0,21.0,16.1,13.0,83,42,24,30.64,30.31,9,3,0,0.00
2013-11-14,55.0,47.1,34.0,23.0,19.7,17.0,53,34,22,30.23,30.03,7,3,0,0.00
2013-11-15,57.0,51.5,45.0,44.0,40.1,34.0,70,65,60,30.04,29.87,7,5,0,0.00
2013-11-16,67.0,63.9,61.0,57.0,56.0,55.0,82,76,69,29.79,29.58,12,9,0,0.00
2013-11-17,64.0,56.9,51.0,25.0,21.4,18.0,32,25,19,30.00,29.79,6,4,0,0.00
2013-11-18,58.0,48.3,33.0,38.0,29.8,23.0,92,53,28,30.29,30.23,7,2,0,0.00
2013-11-19,59.0,51.7,36.0,34.0,26.4,20.0,89,39,27,30.29,30.11,8,5,0,0.00
2013-11-20,54.0,47.4,38.0,35.0,31.3,28.0,85,56,36,30.07,29.93,8,6,0,0.00
2013-11-21,52.0,49.9,47.0,51.0,48.1,44.0,98,94,79,30.22,30.04,7,2,0,0.00
2013-11-22,31.0,30.1,30.0,29.0,28.0,27.0,96,92,89,30.53,30.47,6,4,0,0.00
2013-11-25,35.0,32.6,30.0,27.0,23.6,14.0,82,69,50,30.27,30.16,5,1,0,0.00
2013-11-26,41.0,33.0,25.0,28.0,21.8,13.0,88,63,56,30.29,30.13,9,6,0,0.00
2013-11-27,33.0,25.6,17.0,13.0,10.9,9.0,70,54,38,30.42,30.27,6,2,0,0.00
2013-11-30,61.0,55.9,49.0,42.0,41.0,40.0,71,58,48,30.13,30.09,4,1,0,0.00
2013-12-1,35.0,34.8,34.0,34.0,33.8,33.0,98,98,97,30.12,30.11,0,0,0,0.00
2013-12-2,46.0,45.5,44.0,46.0,45.5,44.0,100,100,100,29.81,29.79,4,2,0,0.00
2013-12-3,60.0,53.0,41.0,52.0,48.3,41.0,99,85,66,29.67,29.58,8,4,0,0.00
2013-12-4,61.0,55.5,48.0,51.0,49.2,47.0,98,81,62,29.60,29.55,7,4,0,0.00
2013-12-5,24.0,22.7,21.0,15.0,13.0,11.0,73,66,59,30.25,30.15,6,4,0,0.00
2013-12-6,18.0,16.6,12.0,13.0,8.3,2.0,84,70,59,30.55,30.32,7,4,0,0.00
2013-12-7,4.0,4.0,4.0,-1.0,-1.0,-1.0,80,80,80,30.61,30.61,0,0,0,0.00
2013-12-8,26.0,26.0,26.0,24.0,23.6,22.0,93,91,86,30.07,30.01,2,1,0,0.00
2013-12-9,23.0,21.1,19.0,16.0,13.9,11.0,89,74,63,30.35,30.23,5,2,0,0.00
2013-12-10,30.0,25.4,12.0,14.0,11.7,7.0,79,56,49,30.35,30.24,4,2,0,0.00
2013-12-11,34.0,26.0,14.0,21.0,12.6,5.0,90,58,38,30.60,30.42,7,3,0,0.00
2013-12-12,41.0,33.2,13.0,21.0,17.6,7.0,75,53,40,30.54,30.32,4,2,0,0.00
2013-12-13,35.0,34.5,34.0,33.0,31.7,30.0,94,90,84,30.09,29.89,7,4,0,0.00
2013-12-14,32.0,31.3,31.0,31.0,30.3,30.0,96,96,96,30.00,29.98,4,4,0,0.00
2013-12-15,40.0,38.2,35.0,32.0,30.8,29.0,77,75,74,30.15,30.09,3,2,0,0.00
2013-12-16,58.0,47.9,37.0,37.0,34.4,30.0,78,61,43,30.14,30.01,4,1,0,0.00
2013-12-17,50.0,38.9,26.0,32.0,26.8,21.0,96,64,43,30.31,30.20,6,2,0,0.00
2013-12-18,58.0,49.9,26.0,36.0,31.7,21.0,82,51,39,30.31,29.91,11,6,0,0.00
2013-12-19,57.0,55.0,51.0,49.0,46.8,41.0,76,74,68,29.88,29.72,11,8,0,0.00
2013-12-20,61.0,40.6,31.0,56.0,37.8,29.0,96,90,82,29.90,29.73,8,3,0,0.00
2013-12-21,32.0,32.0,31.0,31.0,31.0,30.0,97,96,95,29.76,29.51,0,0,0,0.00
2013-12-22,27.0,27.0,27.0,25.0,25.0,25.0,92,92,91,30.04,30.03,0,0,0,0.00
2013-12-23,19.0,17.0,13.0,15.0,12.9,10.0,87,84,80,30.57,30.47,0,0,0,0.00
2013-12-24,32.0,22.3,8.0,24.0,16.2,4.0,86,77,70,30.56,30.27,0,0,0,0.00
2013-12-25,34.0,33.8,33.0,32.0,31.6,31.0,91,91,90,30.29,30.27,3,2,0,0.00
2013-12-26,40.0,34.5,30.0,35.0,30.2,25.0,96,85,76,30.36,30.32,1,0,0,0.00
2013-12-27,54.0,48.3,39.0,34.0,32.6,30.0,74,55,46,30.39,30.29,2,1,0,0.00
2013-12-28,45.0,42.0,38.0,33.0,31.2,29.0,70,66,63,30.19,30.19,1,1,0,0.00
2013-12-30,31.0,23.7,7.0,15.0,7.6,3.0,83,51,35,30.30,30.19,4,1,0,0.00
2013-12-31,54.0,45.7,21.0,28.0,24.0,17.0,83,44,32,30.36,30.16,7,4,0,0.00
2014-1-2,18.0,13.1,8.0,8.0,4.9,3.0,81,70,53,30.41,30.31,5,3,0,0.00